Portsmouth, NH (03803)

6:42 PM EDT on August 27, 2016 (GMT -0400)
NERRS | | Change Station

Elev 14 ft 43.06 °N, 70.83 °W | Updated 9 hours ago

Clear
Clear
68 °F
Feels Like 68 °F
N
3
Wind Variable Wind from SSE
Gusts mph

Today
High -- | Low -- °F
--% Chance of Precip.
Yesterday
High -- | Low -- °F
Precip. -- in
Pressure 30.18 in
Visibility 10.0 miles
Clouds Few 7000 ft
Scattered Clouds 25000 ft
Dew Point 60 °F
Humidity 77%
Rainfall in
Snow Depth Not available.
6:02 AM 7:25 PM
Waning Crescent, 21% visible
METAR KPSM 272158Z 13007KT 10SM FEW070 SCT250 25/14 A3017 RMK AO2A SLP220 T02460141
Pressure 30.18 in
Visibility 10.0 miles
Clouds Few 7000 ft
Scattered Clouds 25000 ft
Dew Point 60 °F
Humidity 77%
Rainfall in
Snow Depth Not available.
6:02 AM 7:25 PM
Waning Crescent, 21% visible
METAR KPSM 272158Z 13007KT 10SM FEW070 SCT250 25/14 A3017 RMK AO2A SLP220 T02460141

10-Day Weather Forecast

Almanac

Astronomy

Aug. 27, 2016 Rise Set
Actual Time
Civil Twilight
Nautical Twilight
Astronomical Twilight
Moon
Length of Visible Light
Length of Day
Tomorrow will be .
, % of the Moon is Illuminated

Today's Extremes

State Highs State Lows

Community

WunderPhotos

Upload Photos

1,935,458 photos uploaded!

WunderBlog® & News

Nearby

Air Quality

  Air Quality AQ Index Pollutant
Not available.

Snow Depth

Station Depth Elevation

Earthquake Activity

City Distance Mag. Time & Date
Minimum magnitude displayed is 2.5.

Coastal Water Temperatures

Place Temperature

Stations

Nearby Weather Stations

Station Location Temp. Windchill Dew Point Humidity Wind Precip. Elev Updated Type
                   

Watches & Warnings

There are currently no watches in effect.